Welcome to Northern Hawkes Bay. New Zealand.
PWS Header
      nz Flag



Hit Counter


W3C Valid W3C Valid logo


    Wairoa

Select any of the Stations below to visit their websites.










Historic Data from Weather Underground
Select the location of interest below. Wairoa is the default. Please have patience, this Data is slow to load in.
Northern Hawkes Bay Historical Data
Daily Summary for October 7, 2017 Units:  Metric    English   Both
« Previous Day
Next Day »
Daily Weekly Monthly Yearly Custom
  High: Low: Average:
Temperature: 21.2 °C 11.6 °C 14.9 °C
Dew Point: 14.2 °C 10.0 °C 12.2 °C
Humidity: 99% 56% 85%
Wind Speed: 12.2km/h 0.0km/h 2.5km/h
Wind Gust: 20.9km/h - -
Wind- - SW
Pressure: 1020.5 hPa 1017.8 hPa -
Precipitation: 0.5 mm    
Historical Graphs
 
 
Tabular Data for October 7, 2017
Time Temperature Dew Point Pressure Wind Wind Speed Wind Gust Humidity Rainfall Rate (Hourly) solar
00:03 15.1 °C 10.5 °C 1019.9 hPa North 7.2 km/h 12.2 km/h 74% 0.0 mm 0 W/m2
00:08 15.1 °C 10.5 °C 1019.9 hPa North 2.6 km/h 13.4 km/h 74% 0.0 mm 0 W/m2
00:13 15.0 °C 10.4 °C 1020.2 hPa North 5.0 km/h 13.4 km/h 74% 0.0 mm 0 W/m2
00:18 14.8 °C 10.6 °C 1020.2 hPa Calm   9.7 km/h 76% 0.0 mm 0 W/m2
00:24 14.7 °C 10.5 °C 1020.5 hPa Calm   7.2 km/h 76% 0.0 mm 0 W/m2
00:29 14.5 °C 10.3 °C 1020.5 hPa Calm     76% 0.0 mm 0 W/m2
00:34 14.3 °C 10.3 °C 1020.5 hPa Calm     77% 0.0 mm 0 W/m2
00:39 14.2 °C 10.2 °C 1020.5 hPa Calm     77% 0.0 mm 0 W/m2
00:44 14.1 °C 10.1 °C 1020.2 hPa Calm     77% 0.0 mm 0 W/m2
00:49 14.0 °C 10.2 °C 1020.5 hPa Calm     78% 0.0 mm 0 W/m2
00:55 13.8 °C 10.2 °C 1020.2 hPa Calm     79% 0.0 mm 0 W/m2
01:00 13.6 °C 10.2 °C 1020.5 hPa Calm     80% 0.0 mm 0 W/m2
01:05 13.6 °C 10.2 °C 1020.2 hPa Calm     80% 0.0 mm 0 W/m2
01:10 13.5 °C 10.3 °C 1020.2 hPa Calm     81% 0.0 mm 0 W/m2
01:15 13.4 °C 10.2 °C 1020.2 hPa Calm     81% 0.0 mm 0 W/m2
01:20 13.2 °C 10.0 °C 1019.9 hPa Calm     81% 0.0 mm 0 W/m2
01:25 13.3 °C 10.3 °C 1020.2 hPa Calm     82% 0.0 mm 0 W/m2
01:30 13.2 °C 10.4 °C 1020.5 hPa Calm   5.0 km/h 83% 0.0 mm 0 W/m2
01:35 13.2 °C 10.6 °C 1020.2 hPa WNW 1.1 km/h 5.0 km/h 84% 0.0 mm 0 W/m2
01:40 13.3 °C 10.7 °C 1020.2 hPa Calm   5.0 km/h 84% 0.0 mm 0 W/m2
01:45 13.4 °C 10.8 °C 1020.2 hPa Calm   5.0 km/h 84% 0.0 mm 0 W/m2
01:48 13.4 °C 10.8 °C 1020.2 hPa Calm   5.0 km/h 84% 0.0 mm 0 W/m2
01:53 13.4 °C 10.8 °C 1020.2 hPa Calm   2.6 km/h 84% 0.0 mm 0 W/m2
01:58 13.3 °C 10.7 °C 1020.2 hPa Calm   1.1 km/h 84% 0.0 mm 0 W/m2
02:03 13.4 °C 10.8 °C 1019.9 hPa Calm   3.5 km/h 84% 0.0 mm 0 W/m2
02:08 13.4 °C 10.8 °C 1019.9 hPa Calm   3.5 km/h 84% 0.0 mm 0 W/m2
02:18 13.4 °C 10.8 °C 1019.9 hPa Calm   2.6 km/h 84% 0.0 mm 0 W/m2
02:20 13.4 °C 10.8 °C 1019.9 hPa Calm   2.6 km/h 84% 0.0 mm 0 W/m2
02:25 13.3 °C 10.7 °C 1019.5 hPa NW 2.6 km/h 5.0 km/h 84% 0.0 mm 0 W/m2
02:30 13.4 °C 10.9 °C 1019.9 hPa NW 2.6 km/h 6.1 km/h 85% 0.0 mm 0 W/m2
02:35 13.3 °C 10.8 °C 1019.5 hPa NW 2.6 km/h 6.1 km/h 85% 0.0 mm 0 W/m2
02:40 13.3 °C 10.8 °C 1019.9 hPa NNW 1.1 km/h 5.0 km/h 85% 0.0 mm 0 W/m2
02:45 13.2 °C 10.7 °C 1019.5 hPa Calm   3.5 km/h 85% 0.0 mm 0 W/m2
02:50 13.1 °C 10.7 °C 1019.5 hPa NNW 2.6 km/h 5.0 km/h 85% 0.0 mm 0 W/m2
02:55 13.1 °C 10.8 °C 1019.5 hPa NNW 2.6 km/h 6.1 km/h 86% 0.0 mm 0 W/m2
03:00 13.0 °C 10.7 °C 1019.5 hPa NNW 2.6 km/h 6.1 km/h 86% 0.0 mm 0 W/m2
03:05 13.0 °C 10.7 °C 1019.5 hPa NNW 3.5 km/h 7.2 km/h 86% 0.0 mm 0 W/m2
03:10 13.0 °C 10.7 °C 1019.5 hPa NW 1.1 km/h 7.2 km/h 86% 0.0 mm 0 W/m2
03:15 13.0 °C 10.7 °C 1019.5 hPa NW 2.6 km/h 7.2 km/h 86% 0.0 mm 0 W/m2
03:20 13.0 °C 10.7 °C 1019.5 hPa NW 2.6 km/h 6.1 km/h 86% 0.0 mm 0 W/m2
03:25 13.0 °C 10.9 °C 1019.5 hPa NNW 2.6 km/h 5.0 km/h 87% 0.0 mm 0 W/m2
03:30 13.0 °C 10.9 °C 1019.5 hPa NNW 1.1 km/h 5.0 km/h 87% 0.0 mm 0 W/m2
03:35 13.0 °C 10.9 °C 1019.5 hPa Calm   5.0 km/h 87% 0.0 mm 0 W/m2
03:40 13.0 °C 10.7 °C 1019.5 hPa NNW 2.6 km/h 5.0 km/h 86% 0.0 mm 0 W/m2
03:45 13.0 °C 10.7 °C 1019.5 hPa Calm   5.0 km/h 86% 0.0 mm 0 W/m2
03:50 12.9 °C 10.6 °C 1019.5 hPa NNE 1.1 km/h 3.5 km/h 86% 0.0 mm 0 W/m2
03:55 12.8 °C 10.7 °C 1019.5 hPa Calm   3.5 km/h 87% 0.0 mm 0 W/m2
04:00 12.8 °C 10.7 °C 1019.5 hPa NNW 1.1 km/h 3.5 km/h 87% 0.0 mm 0 W/m2
04:05 12.7 °C 10.8 °C 1019.5 hPa Calm   5.0 km/h 88% 0.0 mm 0 W/m2
04:10 12.7 °C 10.8 °C 1019.2 hPa Calm   5.0 km/h 88% 0.0 mm 0 W/m2
04:15 12.8 °C 10.7 °C 1019.2 hPa NNW 1.1 km/h 2.6 km/h 87% 0.0 mm 0 W/m2
04:20 12.8 °C 10.7 °C 1019.5 hPa Calm   2.6 km/h 87% 0.0 mm 0 W/m2
04:25 12.7 °C 10.6 °C 1019.2 hPa Calm   2.6 km/h 87% 0.0 mm 0 W/m2
04:30 12.7 °C 10.6 °C 1019.2 hPa Calm   2.6 km/h 87% 0.0 mm 0 W/m2
04:35 12.6 °C 10.5 °C 1018.8 hPa Calm   2.6 km/h 87% 0.0 mm 0 W/m2
04:40 12.6 °C 10.7 °C 1019.2 hPa Calm   2.6 km/h 88% 0.0 mm 0 W/m2
04:45 12.6 °C 10.7 °C 1019.2 hPa NNW 3.5 km/h 5.0 km/h 88% 0.0 mm 0 W/m2
04:50 12.8 °C 10.9 °C 1018.8 hPa NNW 1.1 km/h 5.0 km/h 88% 0.0 mm 0 W/m2
04:55 12.9 °C 10.8 °C 1018.8 hPa NW 3.5 km/h 6.1 km/h 87% 0.0 mm 0 W/m2
05:00 12.9 °C 10.8 °C 1018.8 hPa NW 2.6 km/h 6.1 km/h 87% 0.0 mm 0 W/m2
05:05 13.0 °C 10.9 °C 1018.8 hPa NW 2.6 km/h 6.1 km/h 87% 0.0 mm 0 W/m2
05:10 13.0 °C 10.7 °C 1019.2 hPa NW 1.1 km/h 5.0 km/h 86% 0.0 mm 0 W/m2
05:15 13.1 °C 10.8 °C 1019.2 hPa NW 2.6 km/h 5.0 km/h 86% 0.0 mm 0 W/m2
05:20 13.1 °C 10.8 °C 1019.2 hPa NW 2.6 km/h 5.0 km/h 86% 0.0 mm 0 W/m2
05:25 13.1 °C 10.8 °C 1019.2 hPa NW 1.1 km/h 5.0 km/h 86% 0.0 mm 0 W/m2
05:30 13.1 °C 10.8 °C 1019.2 hPa NW 1.1 km/h 5.0 km/h 86% 0.0 mm 0 W/m2
05:35 13.0 °C 10.7 °C 1019.2 hPa Calm   3.5 km/h 86% 0.0 mm 0 W/m2
05:40 12.8 °C 10.3 °C 1019.2 hPa Calm   3.5 km/h 85% 0.0 mm 0 W/m2
05:45 12.6 °C 10.3 °C 1019.2 hPa Calm   1.1 km/h 86% 0.0 mm 0 W/m2
05:50 12.5 °C 10.4 °C 1019.2 hPa Calm   1.1 km/h 87% 0.0 mm 0 W/m2
05:55 12.4 °C 10.3 °C 1019.5 hPa North 1.1 km/h 3.5 km/h 87% 0.0 mm 0 W/m2
06:00 12.3 °C 10.4 °C 1019.5 hPa North 1.1 km/h 3.5 km/h 88% 0.0 mm 0 W/m2
06:05 12.2 °C 10.6 °C 1019.2 hPa Calm   3.5 km/h 90% 0.0 mm 0 W/m2
06:10 12.1 °C 10.7 °C 1019.2 hPa North 2.6 km/h 3.5 km/h 91% 0.0 mm 0 W/m2
06:15 12.0 °C 10.6 °C 1019.2 hPa Calm   3.5 km/h 91% 0.0 mm 0 W/m2
06:20 11.9 °C 10.7 °C 1019.2 hPa North 2.6 km/h 3.5 km/h 92% 0.0 mm 0 W/m2
06:25 11.9 °C 10.7 °C 1019.2 hPa North 1.1 km/h 3.5 km/h 92% 0.0 mm 0 W/m2
06:30 11.8 °C 10.7 °C 1019.2 hPa Calm   5.0 km/h 93% 0.0 mm 0 W/m2
06:36 11.7 °C 10.6 °C 1019.2 hPa Calm   5.0 km/h 93% 0.0 mm 0 W/m2
06:41 11.7 °C 10.6 °C 1019.2 hPa Calm   2.6 km/h 93% 0.0 mm 0 W/m2
06:46 11.6 °C 10.7 °C 1019.2 hPa Calm   2.6 km/h 94% 0.0 mm 1 W/m2
06:51 11.6 °C 10.7 °C 1019.2 hPa Calm   5.0 km/h 94% 0.0 mm 5 W/m2
06:56 11.7 °C 10.8 °C 1019.2 hPa Calm   5.0 km/h 94% 0.0 mm 11 W/m2
07:01 11.7 °C 10.8 °C 1019.2 hPa Calm   3.5 km/h 94% 0.0 mm 9 W/m2
07:06 11.8 °C 11.1 °C 1019.2 hPa Calm   5.0 km/h 95% 0.0 mm 13 W/m2
07:11 11.9 °C 11.1 °C 1019.5 hPa North 3.5 km/h 6.1 km/h 95% 0.0 mm 12 W/m2
07:16 11.9 °C 11.1 °C 1019.2 hPa Calm   6.1 km/h 95% 0.0 mm 16 W/m2
07:21 11.9 °C 11.1 °C 1019.5 hPa NNW 1.1 km/h 5.0 km/h 95% 0.0 mm 21 W/m2
07:26 11.9 °C 11.1 °C 1019.5 hPa NNW 1.1 km/h 5.0 km/h 95% 0.0 mm 24 W/m2
07:31 11.9 °C 11.1 °C 1019.5 hPa NNW 2.6 km/h 5.0 km/h 95% 0.0 mm 28 W/m2
07:36 12.0 °C 10.9 °C 1019.2 hPa NW 2.6 km/h 5.0 km/h 93% 0.0 mm 32 W/m2
07:41 12.0 °C 10.9 °C 1019.5 hPa NNW 2.6 km/h 6.1 km/h 93% 0.0 mm 37 W/m2
07:46 12.1 °C 11.0 °C 1019.2 hPa NW 2.6 km/h 6.1 km/h 93% 0.0 mm 51 W/m2
07:51 12.2 °C 11.1 °C 1019.5 hPa NW 3.5 km/h 7.2 km/h 93% 0.0 mm 72 W/m2
07:56 12.4 °C 11.2 °C 1019.2 hPa NW 3.5 km/h 9.7 km/h 92% 0.0 mm 85 W/m2
08:01 12.6 °C 11.3 °C 1019.5 hPa NW 3.5 km/h 9.7 km/h 92% 0.0 mm 103 W/m2
08:06 12.9 °C 11.4 °C 1019.5 hPa NW 3.5 km/h 7.2 km/h 91% 0.0 mm 111 W/m2
08:11 13.2 °C 11.6 °C 1019.5 hPa NW 3.5 km/h 6.1 km/h 90% 0.0 mm 163 W/m2
08:16 13.7 °C 11.8 °C 1019.5 hPa NNW 3.5 km/h 7.2 km/h 88% 0.0 mm 158 W/m2
08:21 14.1 °C 11.8 °C 1019.5 hPa NW 2.6 km/h 7.2 km/h 86% 0.0 mm 134 W/m2
08:26 14.4 °C 11.9 °C 1019.5 hPa NW 1.1 km/h 6.1 km/h 85% 0.0 mm 144 W/m2
08:31 14.7 °C 12.1 °C 1019.5 hPa NNW 6.1 km/h 9.7 km/h 84% 0.0 mm 192 W/m2
08:36 15.1 °C 12.2 °C 1019.9 hPa NW 3.5 km/h 9.7 km/h 83% 0.0 mm 207 W/m2
08:41 15.4 °C 12.3 °C 1019.5 hPa NW 3.5 km/h 9.7 km/h 82% 0.0 mm 206 W/m2
08:46 15.7 °C 12.3 °C 1019.5 hPa Calm   7.2 km/h 80% 0.0 mm 208 W/m2
08:51 16.2 °C 12.4 °C 1019.5 hPa NW 3.5 km/h 6.1 km/h 78% 0.0 mm 218 W/m2
08:57 16.8 °C 12.6 °C 1019.5 hPa Calm   6.1 km/h 76% 0.0 mm 230 W/m2
09:02 17.1 °C 12.2 °C 1019.5 hPa NW 3.5 km/h 6.1 km/h 73% 0.0 mm 195 W/m2
09:12 17.6 °C 12.7 °C 1019.5 hPa NNW 1.1 km/h 5.0 km/h 73% 0.0 mm 191 W/m2
09:17 17.5 °C 12.4 °C 1019.9 hPa NNW 2.6 km/h 6.1 km/h 72% 0.0 mm 298 W/m2
09:22 17.9 °C 12.8 °C 1019.5 hPa NW 1.1 km/h 6.1 km/h 72% 0.0 mm 357 W/m2
09:27 18.3 °C 12.9 °C 1019.5 hPa Calm   5.0 km/h 71% 0.0 mm 377 W/m2
09:32 19.0 °C 12.7 °C 1019.5 hPa Calm   6.1 km/h 67% 0.0 mm 348 W/m2
09:37 20.0 °C 13.4 °C 1019.9 hPa NNW 1.1 km/h 6.1 km/h 66% 0.0 mm 353 W/m2
09:58 20.5 °C 12.7 °C 1019.9 hPa Calm   9.7 km/h 61% 0.0 mm 416 W/m2
10:03 21.2 °C 12.9 °C 1019.9 hPa NNE 2.6 km/h 8.7 km/h 59% 0.0 mm 384 W/m2
10:04 21.2 °C 12.3 °C 1019.9 hPa NNE 3.5 km/h 8.7 km/h 57% 0.0 mm 381 W/m2
10:09 20.5 °C 11.4 °C 1019.9 hPa North 3.5 km/h 9.7 km/h 56% 0.0 mm 327 W/m2
10:14 20.2 °C 11.9 °C 1019.9 hPa NNW 7.2 km/h 15.8 km/h 59% 0.0 mm 222 W/m2
10:19 20.2 °C 12.7 °C 1019.9 hPa North 3.5 km/h 15.8 km/h 62% 0.0 mm 413 W/m2
10:29 20.7 °C 12.9 °C 1019.9 hPa North 6.1 km/h 14.8 km/h 61% 0.0 mm 240 W/m2
10:34 20.5 °C 12.2 °C 1020.2 hPa NNW 6.1 km/h 14.8 km/h 59% 0.0 mm 229 W/m2
10:39 20.8 °C 13.0 °C 1020.2 hPa NNW 5.0 km/h 14.8 km/h 61% 0.0 mm 292 W/m2
10:44 20.2 °C 11.9 °C 1020.2 hPa NNW 3.5 km/h 15.8 km/h 59% 0.0 mm 327 W/m2
10:49 19.7 °C 12.0 °C 1020.2 hPa NW 6.1 km/h 17.2 km/h 61% 0.0 mm 177 W/m2
10:54 19.3 °C 11.8 °C 1019.9 hPa NW 2.6 km/h 17.2 km/h 62% 0.0 mm 156 W/m2
10:59 19.3 °C 12.1 °C 1020.2 hPa NW 6.1 km/h 15.8 km/h 63% 0.0 mm 148 W/m2
11:05 19.2 °C 12.2 °C 1019.9 hPa NW 5.0 km/h 12.2 km/h 64% 0.0 mm 158 W/m2
11:10 19.3 °C 12.3 °C 1019.9 hPa NW 7.2 km/h 13.4 km/h 64% 0.0 mm 230 W/m2
11:15 19.2 °C 12.0 °C 1020.2 hPa NW 7.2 km/h 14.8 km/h 63% 0.0 mm 214 W/m2
11:20 19.2 °C 12.0 °C 1019.9 hPa NW 8.7 km/h 15.8 km/h 63% 0.0 mm 224 W/m2
11:25 19.2 °C 12.0 °C 1019.9 hPa NW 9.7 km/h 15.8 km/h 63% 0.0 mm 221 W/m2
11:30 19.3 °C 12.3 °C 1019.9 hPa NW 8.7 km/h 15.8 km/h 64% 0.0 mm 253 W/m2
11:40 19.7 °C 12.7 °C 1019.9 hPa NW 7.2 km/h 15.8 km/h 64% 0.0 mm 396 W/m2
11:45 19.8 °C 12.3 °C 1019.9 hPa NW 6.1 km/h 11.1 km/h 62% 0.0 mm 402 W/m2
11:50 20.0 °C 12.3 °C 1019.9 hPa NW 8.7 km/h 12.2 km/h 61% 0.0 mm 303 W/m2
11:55 19.9 °C 12.7 °C 1019.9 hPa NNW 3.5 km/h 13.4 km/h 63% 0.0 mm 250 W/m2
12:00 20.0 °C 12.5 °C 1019.9 hPa NNW 2.6 km/h 13.4 km/h 62% 0.0 mm 227 W/m2
12:05 19.9 °C 12.7 °C 1019.9 hPa NW 6.1 km/h 9.7 km/h 63% 0.0 mm 228 W/m2
12:10 19.6 °C 12.4 °C 1019.9 hPa NW 7.2 km/h 13.4 km/h 63% 0.0 mm 243 W/m2
12:15 19.5 °C 12.5 °C 1019.5 hPa NW 8.7 km/h 13.4 km/h 64% 0.0 mm 224 W/m2
12:20 19.5 °C 12.5 °C 1019.9 hPa NW 1.1 km/h 11.1 km/h 64% 0.0 mm 174 W/m2
12:25 19.3 °C 12.3 °C 1019.9 hPa WNW 5.0 km/h 12.2 km/h 64% 0.0 mm 147 W/m2
12:30 19.0 °C 12.3 °C 1019.9 hPa NW 5.0 km/h 12.2 km/h 65% 0.0 mm 146 W/m2
12:35 18.7 °C 12.7 °C 1019.9 hPa NW 3.5 km/h 12.2 km/h 68% 0.0 mm 147 W/m2
12:40 18.3 °C 12.5 °C 1019.9 hPa NW 7.2 km/h 14.8 km/h 69% 0.0 mm 116 W/m2
12:45 18.2 °C 13.1 °C 1019.9 hPa NW 3.5 km/h 14.8 km/h 72% 0.0 mm 127 W/m2
12:50 18.1 °C 13.2 °C 1019.9 hPa NNW 3.5 km/h 12.2 km/h 73% 0.0 mm 131 W/m2
12:55 18.1 °C 13.0 °C 1019.9 hPa North 5.0 km/h 9.7 km/h 72% 0.0 mm 152 W/m2
13:00 18.0 °C 13.7 °C 1019.9 hPa NNW 5.0 km/h 9.7 km/h 76% 0.0 mm 136 W/m2
13:05 17.9 °C 13.6 °C 1019.9 hPa NW 1.1 km/h 9.7 km/h 76% 0.0 mm 164 W/m2
13:10 17.9 °C 13.4 °C 1020.2 hPa NNW 3.5 km/h 8.7 km/h 75% 0.0 mm 171 W/m2
13:15 17.9 °C 13.4 °C 1020.2 hPa North 3.5 km/h 9.7 km/h 75% 0.0 mm 158 W/m2
13:20 17.9 °C 12.8 °C 1019.9 hPa NNW 3.5 km/h 9.7 km/h 72% 0.0 mm 152 W/m2
13:25 18.0 °C 13.5 °C 1020.2 hPa NNW 2.6 km/h 8.7 km/h 75% 0.0 mm 142 W/m2
13:35 17.8 °C 13.3 °C 1020.2 hPa NNW 5.0 km/h 9.7 km/h 75% 0.0 mm 130 W/m2
13:40 17.4 °C 13.3 °C 1020.5 hPa NW 7.2 km/h 9.7 km/h 77% 0.0 mm 124 W/m2
13:45 17.1 °C 13.4 °C 1020.2 hPa NW 8.7 km/h 9.7 km/h 79% 0.0 mm 115 W/m2
13:50 16.7 °C 13.6 °C 1019.9 hPa NW 2.6 km/h 9.7 km/h 82% 0.0 mm 112 W/m2
13:55 16.6 °C 13.5 °C 1019.9 hPa NW 3.5 km/h 9.7 km/h 82% 0.0 mm 110 W/m2
14:00 16.6 °C 13.7 °C 1019.9 hPa Calm   8.7 km/h 83% 0.3 mm 100 W/m2
14:05 16.6 °C 13.7 °C 1019.9 hPa Calm   7.2 km/h 83% 0.3 mm 100 W/m2
14:10 16.7 °C 13.8 °C 1019.9 hPa Calm   2.6 km/h 83% 0.3 mm 105 W/m2
14:15 16.7 °C 13.8 °C 1019.9 hPa NW 2.6 km/h 5.0 km/h 83% 0.3 mm 125 W/m2
14:20 16.7 °C 13.8 °C 1019.9 hPa Calm   5.0 km/h 83% 0.3 mm 135 W/m2
14:25 16.7 °C 13.8 °C 1019.5 hPa WNW 2.6 km/h 5.0 km/h 83% 0.3 mm 125 W/m2
14:30 16.7 °C 13.8 °C 1019.5 hPa Calm   5.0 km/h 83% 0.3 mm 110 W/m2
14:35 16.7 °C 13.8 °C 1019.5 hPa Calm   5.0 km/h 83% 0.3 mm 94 W/m2
14:40 16.7 °C 14.0 °C 1019.5 hPa NE 1.1 km/h 5.0 km/h 84% 0.3 mm 94 W/m2
14:45 16.7 °C 14.0 °C 1019.5 hPa ENE 3.5 km/h 5.0 km/h 84% 0.3 mm 92 W/m2
14:50 16.7 °C 14.2 °C 1019.2 hPa ESE 3.5 km/h 6.1 km/h 85% 0.3 mm 94 W/m2
14:55 16.6 °C 14.1 °C 1019.2 hPa ESE 2.6 km/h 6.1 km/h 85% 0.3 mm 103 W/m2
15:00 16.5 °C 14.0 °C 1019.2 hPa Calm   6.1 km/h 85% 0.0 mm 100 W/m2
15:05 16.5 °C 14.2 °C 1019.2 hPa Calm   5.0 km/h 86% 0.0 mm 91 W/m2
15:10 16.4 °C 14.2 °C 1018.8 hPa ESE 1.1 km/h 5.0 km/h 87% 0.0 mm 89 W/m2
15:15 16.2 °C 14.1 °C 1019.2 hPa Calm   5.0 km/h 87% 0.3 mm 85 W/m2
15:20 16.0 °C 13.7 °C 1019.2 hPa Calm   5.0 km/h 86% 0.3 mm 87 W/m2
15:25 16.0 °C 13.7 °C 1019.2 hPa Calm   3.5 km/h 86% 0.3 mm 92 W/m2
15:30 16.1 °C 13.8 °C 1019.2 hPa East 3.5 km/h 5.0 km/h 86% 0.3 mm 82 W/m2
15:35 16.0 °C 13.7 °C 1019.2 hPa ESE 1.1 km/h 5.0 km/h 86% 0.3 mm 68 W/m2
15:40 15.9 °C 13.9 °C 1019.2 hPa Calm   6.1 km/h 88% 0.3 mm 77 W/m2
15:45 15.7 °C 13.7 °C 1018.8 hPa East 3.5 km/h 6.1 km/h 88% 0.3 mm 75 W/m2
15:50 15.6 °C 13.8 °C 1018.8 hPa East 3.5 km/h 7.2 km/h 89% 0.3 mm 73 W/m2
15:55 15.5 °C 13.7 °C 1018.8 hPa East 6.1 km/h 11.1 km/h 89% 0.3 mm 75 W/m2
16:00 15.4 °C 13.6 °C 1018.8 hPa ESE 6.1 km/h 11.1 km/h 89% 0.3 mm 81 W/m2
16:05 15.3 °C 13.7 °C 1018.8 hPa ESE 3.5 km/h 11.1 km/h 90% 0.3 mm 73 W/m2
16:10 15.2 °C 13.7 °C 1018.8 hPa ESE 3.5 km/h 9.7 km/h 91% 0.3 mm 60 W/m2
16:16 15.1 °C 13.8 °C 1018.8 hPa ESE 2.6 km/h 9.7 km/h 92% 0.0 mm 65 W/m2
16:21 15.1 °C 13.8 °C 1018.8 hPa ESE 3.5 km/h 9.7 km/h 92% 0.0 mm 56 W/m2
16:24 15.1 °C 13.8 °C 1018.8 hPa SE 5.0 km/h 9.7 km/h 92% 0.0 mm 47 W/m2
16:30 15.1 °C 14.0 °C 1018.8 hPa SSE 3.5 km/h 8.7 km/h 93% 0.0 mm 33 W/m2
16:35 15.0 °C 13.9 °C 1018.8 hPa SE 2.6 km/h 12.2 km/h 93% 0.0 mm 45 W/m2
16:40 15.0 °C 13.9 °C 1018.8 hPa ESE 5.0 km/h 12.2 km/h 93% 0.0 mm 34 W/m2
16:45 14.9 °C 13.9 °C 1018.8 hPa ESE 3.5 km/h 12.2 km/h 94% 0.0 mm 27 W/m2
16:55 14.8 °C 13.8 °C 1018.8 hPa ESE 11.1 km/h 13.4 km/h 94% 0.0 mm 27 W/m2
17:00 14.9 °C 13.9 °C 1018.5 hPa ESE 7.2 km/h 14.8 km/h 94% 0.0 mm 34 W/m2
17:05 14.9 °C 13.8 °C 1018.5 hPa ESE 7.2 km/h 14.8 km/h 93% 0.0 mm 30 W/m2
17:10 15.0 °C 13.6 °C 1018.5 hPa ESE 6.1 km/h 14.8 km/h 91% 0.0 mm 32 W/m2
17:15 15.1 °C 13.3 °C 1018.8 hPa ESE 8.7 km/h 17.2 km/h 89% 0.0 mm 36 W/m2
17:20 15.2 °C 13.4 °C 1018.5 hPa ESE 7.2 km/h 17.2 km/h 89% 0.0 mm 36 W/m2
17:25 15.2 °C 13.6 °C 1018.5 hPa East 5.0 km/h 13.4 km/h 90% 0.0 mm 36 W/m2
17:30 15.2 °C 13.7 °C 1018.5 hPa East 6.1 km/h 13.4 km/h 91% 0.0 mm 34 W/m2
17:35 15.2 °C 13.7 °C 1018.5 hPa ENE 5.0 km/h 13.4 km/h 91% 0.0 mm 33 W/m2
17:40 15.2 °C 13.6 °C 1018.5 hPa East 8.7 km/h 13.4 km/h 90% 0.0 mm 30 W/m2
17:45 15.2 °C 13.6 °C 1018.2 hPa East 6.1 km/h 14.8 km/h 90% 0.0 mm 24 W/m2
17:50 15.2 °C 13.6 °C 1018.2 hPa East 7.2 km/h 14.8 km/h 90% 0.0 mm 30 W/m2
17:55 15.1 °C 13.5 °C 1018.2 hPa East 12.2 km/h 20.9 km/h 90% 0.0 mm 26 W/m2
18:00 15.0 °C 13.4 °C 1018.2 hPa East 7.2 km/h 20.9 km/h 90% 0.0 mm 24 W/m2
18:05 14.8 °C 13.3 °C 1018.2 hPa East 9.7 km/h 17.2 km/h 91% 0.0 mm 24 W/m2
18:10 14.6 °C 13.2 °C 1018.2 hPa East 3.5 km/h 18.3 km/h 91% 0.0 mm 22 W/m2
18:15 14.5 °C 13.2 °C 1018.2 hPa East 8.7 km/h 18.3 km/h 92% 0.0 mm 18 W/m2
18:20 14.5 °C 13.2 °C 1018.2 hPa East 3.5 km/h 14.8 km/h 92% 0.0 mm 12 W/m2
18:25 14.5 °C 13.4 °C 1018.5 hPa East 1.1 km/h 11.1 km/h 93% 0.0 mm 9 W/m2
18:30 14.5 °C 13.4 °C 1018.2 hPa ESE 1.1 km/h 7.2 km/h 93% 0.0 mm 7 W/m2
18:35 14.5 °C 13.4 °C 1018.5 hPa Calm   6.1 km/h 93% 0.0 mm 6 W/m2
18:40 14.4 °C 13.4 °C 1018.2 hPa ESE 1.1 km/h 5.0 km/h 94% 0.0 mm 5 W/m2
18:45 14.4 °C 13.4 °C 1018.2 hPa East 3.5 km/h 6.1 km/h 94% 0.0 mm 3 W/m2
18:50 14.4 °C 13.4 °C 1018.2 hPa ENE 1.1 km/h 8.7 km/h 94% 0.0 mm 2 W/m2
18:55 14.3 °C 13.3 °C 1018.5 hPa Calm   8.7 km/h 94% 0.0 mm 1 W/m2
19:00 14.3 °C 13.3 °C 1018.5 hPa Calm   2.6 km/h 94% 0.0 mm 0 W/m2
19:18 14.1 °C 13.3 °C 1018.5 hPa Calm   3.5 km/h 95% 0.0 mm 0 W/m2
19:23 14.1 °C 13.3 °C 1018.5 hPa Calm   3.5 km/h 95% 0.0 mm 0 W/m2
19:28 14.0 °C 13.2 °C 1018.5 hPa NE 1.1 km/h 3.5 km/h 95% 0.0 mm 0 W/m2
19:33 14.0 °C 13.2 °C 1018.5 hPa Calm   3.5 km/h 95% 0.0 mm 0 W/m2
19:38 13.9 °C 13.4 °C 1018.5 hPa NE 1.1 km/h 3.5 km/h 97% 0.0 mm 0 W/m2
19:43 13.9 °C 13.4 °C 1018.5 hPa Calm   3.5 km/h 97% 0.0 mm 0 W/m2
19:48 13.8 °C 13.3 °C 1018.5 hPa Calm   3.5 km/h 97% 0.0 mm 0 W/m2
19:53 13.8 °C 13.3 °C 1018.5 hPa ENE 2.6 km/h 3.5 km/h 97% 0.0 mm 0 W/m2
19:58 13.6 °C 13.3 °C 1018.5 hPa Calm   3.5 km/h 98% 0.0 mm 0 W/m2
20:03 13.6 °C 13.3 °C 1018.2 hPa Calm   3.5 km/h 98% 0.0 mm 0 W/m2
20:13 13.6 °C 13.3 °C 1018.5 hPa East 2.6 km/h 5.0 km/h 98% 0.0 mm 0 W/m2
20:18 13.6 °C 13.3 °C 1018.5 hPa NE 2.6 km/h 5.0 km/h 98% 0.0 mm 0 W/m2
20:23 13.6 °C 13.3 °C 1018.5 hPa Calm   5.0 km/h 98% 0.0 mm 0 W/m2
20:28 13.5 °C 13.2 °C 1018.5 hPa Calm   3.5 km/h 98% 0.0 mm 0 W/m2
20:38 13.3 °C 13.0 °C 1018.8 hPa West 1.1 km/h 2.6 km/h 98% 0.0 mm 0 W/m2
20:43 13.3 °C 13.2 °C 1018.5 hPa Calm   3.5 km/h 99% 0.0 mm 0 W/m2
20:48 13.4 °C 13.3 °C 1018.8 hPa Calm   3.5 km/h 99% 0.0 mm 0 W/m2
20:53 13.3 °C 13.2 °C 1018.8 hPa North 1.1 km/h 3.5 km/h 99% 0.0 mm 0 W/m2
20:58 13.3 °C 13.2 °C 1018.5 hPa Calm   2.6 km/h 99% 0.0 mm 0 W/m2
21:03 13.3 °C 13.2 °C 1018.8 hPa Calm   2.6 km/h 99% 0.0 mm 0 W/m2
21:08 13.3 °C 13.2 °C 1018.8 hPa Calm   2.6 km/h 99% 0.0 mm 0 W/m2
21:13 13.2 °C 13.1 °C 1018.8 hPa ENE 1.1 km/h 3.5 km/h 99% 0.0 mm 0 W/m2
21:18 13.3 °C 13.2 °C 1018.8 hPa ENE 5.0 km/h 6.1 km/h 99% 0.0 mm 0 W/m2
21:23 13.5 °C 13.3 °C 1018.8 hPa NE 5.0 km/h 8.7 km/h 99% 0.0 mm 0 W/m2
21:28 13.8 °C 13.7 °C 1018.5 hPa NE 7.2 km/h 12.2 km/h 99% 0.0 mm 0 W/m2
21:33 13.8 °C 13.5 °C 1018.5 hPa NE 5.0 km/h 12.2 km/h 98% 0.0 mm 0 W/m2
21:38 13.8 °C 13.3 °C 1018.5 hPa ENE 2.6 km/h 13.4 km/h 97% 0.0 mm 0 W/m2
21:43 13.9 °C 13.3 °C 1018.5 hPa ENE 5.0 km/h 13.4 km/h 96% 0.0 mm 0 W/m2
21:48 14.0 °C 13.1 °C 1018.5 hPa Calm   8.7 km/h 94% 0.0 mm 0 W/m2
21:53 13.9 °C 13.1 °C 1018.5 hPa NE 1.1 km/h 8.7 km/h 95% 0.0 mm 0 W/m2
21:58 13.9 °C 13.1 °C 1018.5 hPa NE 2.6 km/h 7.2 km/h 95% 0.0 mm 0 W/m2
22:03 13.9 °C 13.1 °C 1018.2 hPa NE 1.1 km/h 7.2 km/h 95% 0.0 mm 0 W/m2
22:08 13.8 °C 13.0 °C 1018.5 hPa Calm   6.1 km/h 95% 0.0 mm 0 W/m2
22:13 13.8 °C 13.0 °C 1018.5 hPa Calm   3.5 km/h 95% 0.0 mm 0 W/m2
22:18 13.8 °C 13.0 °C 1018.5 hPa Calm   2.6 km/h 95% 0.0 mm 0 W/m2
22:23 13.6 °C 12.8 °C 1018.2 hPa Calm   2.6 km/h 95% 0.0 mm 0 W/m2
22:28 13.6 °C 12.8 °C 1018.2 hPa Calm   2.6 km/h 95% 0.0 mm 0 W/m2
22:33 13.5 °C 12.7 °C 1018.2 hPa Calm     95% 0.0 mm 0 W/m2
22:38 13.4 °C 12.6 °C 1018.2 hPa Calm     95% 0.0 mm 0 W/m2
22:43 13.4 °C 12.6 °C 1018.2 hPa Calm     95% 0.0 mm 0 W/m2
22:48 13.3 °C 12.5 °C 1018.2 hPa Calm   1.1 km/h 95% 0.0 mm 0 W/m2
22:53 13.3 °C 12.7 °C 1018.2 hPa NNE 3.5 km/h 5.0 km/h 96% 0.0 mm 0 W/m2
22:58 13.5 °C 12.7 °C 1018.2 hPa North 3.5 km/h 9.7 km/h 95% 0.0 mm 0 W/m2
23:03 14.1 °C 12.7 °C 1018.2 hPa North 7.2 km/h 13.4 km/h 91% 0.0 mm 0 W/m2
23:13 14.7 °C 12.2 °C 1018.2 hPa NNE 1.1 km/h 13.4 km/h 85% 0.0 mm 0 W/m2
23:18 14.7 °C 12.1 °C 1018.2 hPa NE 6.1 km/h 12.2 km/h 84% 0.0 mm 0 W/m2
23:23 14.7 °C 12.1 °C 1018.2 hPa NNE 2.6 km/h 12.2 km/h 84% 0.0 mm 0 W/m2
23:28 14.7 °C 12.1 °C 1018.2 hPa NNE 5.0 km/h 9.7 km/h 84% 0.0 mm 0 W/m2
23:33 14.7 °C 12.1 °C 1018.2 hPa NE 3.5 km/h 11.1 km/h 84% 0.0 mm 0 W/m2
23:38 14.6 °C 11.9 °C 1017.8 hPa NE 3.5 km/h 11.1 km/h 84% 0.0 mm 0 W/m2
23:43 14.6 °C 11.9 °C 1017.8 hPa NE 6.1 km/h 9.7 km/h 84% 0.0 mm 0 W/m2
23:48 14.6 °C 11.9 °C 1018.2 hPa NE 2.6 km/h 9.7 km/h 84% 0.0 mm 0 W/m2
23:53 14.5 °C 11.8 °C 1018.2 hPa NE 2.6 km/h 9.7 km/h 84% 0.0 mm 0 W/m2
23:58 14.5 °C 11.8 °C 1018.2 hPa NE 1.1 km/h 6.1 km/h 84% 0.0 mm 0 W/m2
Northern Hawkes Bay. New Zealand Historic Data
Compliments of Weather Underground - 2 mb